Date,TemperatureHighF,TemperatureAvgF,TemperatureLowF,DewpointHighF,DewpointAvgF,DewpointLowF,HumidityHigh,HumidityAvg,HumidityLow,PressureMaxIn,PressureMinIn,WindSpeedMaxMPH,WindSpeedAvgMPH,GustSpeedMaxMPH,PrecipitationSumIn
2012-1-1,65.5,52.2,34.9,55.5,41.9,33.1,98,72,38,30.15,29.88,10,2,10,0.00
2012-1-2,58.5,46.8,31.6,53.5,25.5,12.2,86,44,36,29.97,29.85,14,4,14,0.00
2012-1-3,37.9,32.4,26.6,15.2,11.1,6.2,42,41,39,30.27,29.88,17,5,17,0.00
2012-1-4,41.7,30.9,15.8,19.8,10.3,-2.1,45,42,39,30.36,30.09,8,2,8,0.00
2012-1-5,56.5,42.5,32.2,29.2,19.7,14.2,51,40,35,30.09,29.94,9,2,9,0.00
2012-1-6,62.2,48.5,31.1,41.0,29.0,15.4,64,48,35,30.09,29.97,9,1,9,0.00
2012-1-7,64.0,55.0,48.9,49.7,38.9,29.8,82,56,35,30.03,29.94,6,1,6,0.00
2012-1-8,63.1,54.9,49.5,49.1,36.0,24.9,89,53,34,30.21,30.03,12,2,12,0.00
2012-1-9,51.3,48.0,43.7,47.0,40.2,24.0,97,77,38,30.21,29.97,10,2,10,0.00
2012-1-10,57.2,48.6,41.9,48.0,43.0,33.1,98,83,43,30.06,29.97,8,2,8,0.00
2012-1-11,61.7,55.1,41.0,61.1,49.2,31.6,98,83,49,30.00,29.53,12,3,12,0.00
2012-1-12,61.3,54.7,49.1,56.5,42.4,36.2,98,64,46,29.68,29.56,15,2,15,0.00
2012-1-13,62.4,45.0,35.4,49.8,23.3,14.8,66,42,35,30.00,29.56,15,3,15,0.00
2012-1-14,46.6,37.1,29.5,22.4,16.6,10.8,56,43,37,30.18,30.00,9,1,9,0.00
2012-1-15,47.7,39.1,25.9,23.3,17.7,10.7,52,42,38,30.50,30.09,17,3,17,0.00
2012-1-16,50.4,38.3,25.0,35.3,21.6,10.2,71,52,38,30.56,30.33,9,1,9,0.43
2012-1-17,65.8,56.3,44.1,51.5,44.8,35.3,84,66,43,30.33,29.97,11,2,11,0.00
2012-1-18,57.6,49.1,33.3,56.5,38.4,20.2,98,68,42,30.03,29.85,14,2,14,0.00
2012-1-19,52.3,40.5,30.7,30.4,22.4,16.1,69,49,37,30.15,30.00,10,3,10,0.00
2012-1-20,59.0,43.6,34.3,43.2,32.1,27.8,87,67,35,30.12,30.03,6,0,6,0.00
2012-1-21,62.2,56.3,47.7,58.6,51.1,39.2,98,83,64,30.06,29.88,12,2,12,0.00
2012-1-22,47.7,42.3,39.0,43.4,36.5,33.2,88,80,72,30.24,30.03,17,6,17,0.00
2012-1-23,64.0,52.2,42.6,63.3,50.0,39.1,98,92,79,30.21,29.97,10,2,10,0.00
2012-1-24,71.2,61.0,50.0,66.5,55.3,46.2,98,83,47,30.15,29.97,8,1,9,0.00
2012-1-25,65.7,52.2,42.8,47.1,41.0,34.8,98,70,34,30.24,30.12,10,2,10,0.04
2012-1-26,65.1,56.2,41.9,59.3,49.4,39.5,98,79,50,30.12,29.83,13,2,13,0.00
2012-1-27,68.0,61.4,48.2,62.3,49.8,33.2,91,68,34,29.94,29.65,14,3,17,0.00
2012-1-28,64.8,49.4,35.6,42.5,34.8,28.4,88,60,35,30.09,29.94,8,1,232,0.00
2012-1-29,56.7,44.6,32.0,43.6,23.5,17.0,91,44,35,30.27,30.09,13,2,13,0.00
2012-1-30,59.2,43.7,32.0,31.6,22.4,13.6,72,44,35,30.39,30.24,11,1,11,0.00
2012-1-31,64.0,48.9,32.9,46.1,32.3,27.0,93,57,34,30.39,30.27,12,1,12,0.00
2012-2-1,66.6,57.9,50.0,51.4,41.0,34.5,81,55,37,30.27,30.09,11,1,11,0.00
2012-2-2,70.0,58.8,43.2,59.0,44.8,34.1,93,63,33,30.21,29.97,13,2,13,0.00
2012-2-3,56.1,46.5,33.8,41.6,28.3,23.5,86,51,36,30.42,30.21,15,4,15,0.08
2012-2-4,65.8,52.5,33.4,51.3,39.0,27.4,91,63,37,30.36,30.00,8,2,8,0.00
2012-2-5,59.2,51.4,42.8,53.6,44.0,28.8,95,76,56,30.15,29.91,14,3,14,0.00
2012-2-6,55.0,46.7,38.1,38.4,29.2,25.7,73,51,38,30.21,30.06,11,3,11,0.00
2012-2-7,58.6,48.5,41.4,42.6,33.7,26.4,91,59,36,30.12,30.03,10,2,10,0.00
2012-2-8,60.6,45.9,35.6,40.6,34.7,29.2,94,68,36,30.12,29.97,12,3,14,0.04
2012-2-9,49.5,39.3,30.7,34.3,26.1,21.4,91,62,38,30.24,30.09,13,2,13,0.00
2012-2-10,53.2,42.9,28.2,44.6,32.6,0.0,93,70,42,30.21,29.85,6,1,6,0.08
2012-2-11,52.5,45.0,28.6,47.6,33.5,7.9,98,68,38,29.88,29.62,16,4,16,0.00
2012-2-12,39.7,30.5,23.5,16.8,9.5,3.8,42,41,39,30.18,29.88,16,5,16,0.00
2012-2-13,46.4,35.4,24.6,22.0,14.9,5.7,63,43,37,30.24,30.12,10,2,10,0.00
2012-2-14,53.4,44.0,31.6,35.2,27.8,20.6,71,54,36,30.12,30.03,8,1,8,0.00
2012-2-15,63.7,49.9,39.9,45.0,34.9,30.4,87,60,34,30.27,30.03,13,2,14,0.00
2012-2-16,61.0,52.4,39.2,60.4,43.7,27.4,98,75,41,30.24,29.91,8,3,8,0.00
2012-2-17,63.3,53.8,42.4,55.8,42.0,34.7,98,68,35,30.06,29.91,11,3,11,0.00
2012-2-18,64.0,52.8,40.3,44.5,39.1,35.5,95,63,37,30.09,29.94,11,2,11,0.00
2012-2-19,56.3,50.0,42.1,54.3,46.3,37.4,98,87,63,29.94,29.59,19,6,19,0.00
2012-2-20,52.0,40.9,32.2,37.6,25.2,18.5,84,56,36,30.30,29.71,21,5,21,0.00
2012-2-21,61.9,47.6,28.2,48.9,34.1,20.2,84,61,38,30.30,30.00,8,2,8,0.00
2012-2-22,67.5,58.8,49.8,52.0,43.6,38.0,84,59,35,30.00,29.65,13,2,13,0.12
2012-2-23,66.6,60.7,56.7,59.8,54.0,47.6,93,80,51,29.71,29.59,10,2,10,0.00
2012-2-24,66.4,62.9,58.8,63.7,57.4,34.7,98,83,40,29.71,29.62,14,3,14,0.00
2012-2-25,59.0,49.1,39.0,35.8,24.6,16.9,42,38,36,30.24,29.71,14,4,14,0.00
2012-2-26,48.9,37.2,25.3,26.5,19.6,9.9,81,50,38,30.45,30.24,8,2,8,0.00
2012-2-27,68.5,52.2,31.6,54.4,42.1,26.5,89,70,46,30.42,30.27,8,2,8,0.00
2012-2-28,64.2,54.7,45.9,54.7,39.5,25.8,93,61,34,30.36,30.24,15,4,15,0.00
2012-2-29,71.8,59.4,44.6,61.8,51.4,39.5,93,77,41,30.27,29.94,13,3,13,0.00
2012-3-1,74.8,63.5,59.9,59.0,54.2,43.9,91,74,35,29.94,29.74,8,2,8,0.00
2012-3-2,65.8,61.5,54.9,62.5,54.5,47.0,98,79,51,29.97,29.77,11,2,11,0.00
2012-3-3,66.0,61.5,57.6,64.2,57.7,51.5,98,88,62,29.77,29.68,8,1,10,0.00
2012-3-4,57.7,46.5,39.9,56.3,36.1,21.8,96,70,38,30.03,29.59,17,4,17,0.00
2012-3-5,62.2,46.4,31.8,33.5,24.4,15.7,59,43,34,30.45,29.94,18,3,18,0.00
2012-3-6,52.5,40.4,27.1,26.4,20.3,11.9,60,45,36,30.62,30.45,12,3,12,0.00
2012-3-7,65.8,51.1,36.5,42.5,33.9,20.1,71,53,35,30.62,30.45,11,3,11,0.00
2012-3-8,71.8,62.4,50.5,62.0,46.9,40.2,96,60,34,30.45,30.18,17,3,17,0.00
2012-3-9,63.7,55.5,36.7,61.5,49.2,30.2,98,80,48,30.27,30.06,17,2,17,0.00
2012-3-10,56.3,44.8,32.9,40.1,28.3,19.7,95,56,36,30.50,30.24,16,4,17,0.00
2012-3-11,61.2,47.8,33.4,36.3,27.6,16.8,77,47,34,30.50,30.42,10,3,10,0.04
2012-3-12,69.6,54.2,36.5,56.2,39.9,32.9,94,63,34,30.42,30.27,15,2,15,0.00
2012-3-13,72.0,62.2,53.1,55.1,48.3,42.3,87,63,35,30.27,30.15,11,2,11,0.00
2012-3-14,67.3,58.9,56.1,53.4,51.3,48.4,86,76,51,30.24,30.12,5,0,5,0.00
2012-3-15,76.1,63.5,52.2,65.1,51.7,47.5,98,69,37,30.27,30.21,9,2,9,0.00
2012-3-16,74.3,66.0,61.0,67.4,56.4,48.0,96,73,40,30.24,30.15,9,2,9,0.00
2012-3-17,77.2,66.0,60.1,67.1,56.4,48.2,98,75,36,30.24,30.12,10,2,10,0.00
2012-3-18,72.1,61.5,57.0,65.4,58.3,54.8,98,90,55,30.27,30.18,9,2,9,0.00
2012-3-19,73.9,62.9,55.6,65.5,55.5,48.6,98,79,44,30.21,30.12,9,2,9,0.00
2012-3-20,76.5,65.0,53.4,67.8,56.1,47.8,98,76,38,30.24,30.12,11,2,11,0.00
2012-3-21,73.8,66.1,58.5,66.5,55.8,48.4,98,72,44,30.30,30.21,12,2,12,0.00
2012-3-22,73.9,67.2,62.8,60.5,54.5,47.1,88,66,42,30.30,30.18,15,3,15,0.08
2012-3-23,79.0,67.3,57.0,67.8,55.8,48.1,98,70,34,30.18,30.00,10,2,10,0.00
2012-3-24,74.3,68.2,64.6,68.5,60.5,50.1,96,78,43,30.03,29.80,14,2,14,0.12
2012-3-25,76.1,65.8,58.1,67.6,54.5,43.3,98,71,34,29.80,29.62,12,2,12,0.00
2012-3-26,75.6,63.8,56.7,56.1,45.1,30.5,96,56,31,30.06,29.68,15,5,16,0.00
2012-3-27,60.4,51.7,42.1,32.7,27.2,21.8,54,39,35,30.30,30.06,13,3,13,0.00
2012-3-28,70.7,59.7,39.9,55.3,42.1,27.1,70,54,36,30.27,29.88,11,2,11,0.00
2012-3-29,85.8,72.3,59.2,55.3,47.4,37.9,75,44,29,29.94,29.80,13,3,15,0.00
2012-3-30,73.9,65.8,58.5,58.4,46.7,35.6,82,51,39,30.00,29.88,13,4,13,0.00
2012-3-31,69.6,65.9,61.0,64.4,57.7,52.2,90,75,56,29.91,29.68,8,1,8,0.00
2012-4-1,65.1,58.6,52.0,60.9,44.6,36.2,91,62,36,29.88,29.74,15,4,15,0.08
2012-4-2,74.3,64.9,50.7,55.7,43.2,28.8,80,47,32,29.94,29.62,17,4,17,0.00
2012-4-3,69.3,56.3,37.6,55.7,37.8,33.0,94,55,33,30.00,27.88,13,2,13,0.00
2012-4-4,77.9,68.9,62.1,62.3,53.8,45.6,85,61,33,29.88,29.65,7,2,8,0.00
2012-4-5,66.9,59.0,50.0,60.5,42.2,31.7,89,56,35,29.80,29.62,17,4,17,0.00
2012-4-6,55.0,48.0,37.0,46.2,36.6,27.5,89,67,38,30.00,29.71,17,6,17,0.47
2012-4-7,65.7,48.5,32.0,41.1,30.0,21.9,95,53,33,30.18,30.00,13,2,13,0.00
2012-4-8,72.9,60.6,45.7,54.2,39.9,29.5,75,48,32,30.12,29.91,11,2,11,0.00
2012-4-9,71.6,63.1,53.6,56.0,39.4,29.2,79,43,32,30.03,29.88,15,3,15,0.00
2012-4-10,75.0,64.3,54.3,48.0,39.7,32.8,60,41,31,29.94,29.77,14,3,14,0.00
2012-4-11,65.7,57.5,40.1,46.8,31.4,17.7,53,37,33,30.06,29.77,17,4,17,0.00
2012-4-12,64.6,49.0,34.3,35.3,25.2,15.8,51,40,33,30.15,30.06,13,3,13,0.00
2012-4-13,67.6,52.8,37.9,46.2,33.2,23.6,90,51,33,30.27,30.09,11,2,11,0.00
2012-4-14,72.9,57.9,36.9,52.6,38.8,31.3,93,54,32,30.33,30.21,13,3,13,0.00
2012-4-15,75.9,67.9,62.1,55.5,49.0,44.8,72,52,34,30.24,30.18,17,3,17,0.00
2012-4-16,78.4,69.1,60.6,63.6,51.3,43.5,92,57,32,30.24,30.12,10,2,13,0.00
2012-4-17,80.8,71.4,63.3,57.6,51.5,44.4,78,52,33,30.15,30.06,11,2,11,0.00
2012-4-18,78.4,68.5,59.2,54.2,48.3,42.2,72,50,32,30.15,30.00,12,3,12,0.00
2012-4-19,67.1,61.9,58.5,61.3,53.8,47.9,98,76,50,30.03,29.97,9,3,9,0.00
2012-4-20,75.4,64.7,56.8,59.0,50.8,42.9,87,63,36,30.00,29.88,12,3,12,0.00
2012-4-21,81.1,67.3,54.9,68.6,55.6,50.8,98,70,36,29.88,29.71,13,3,232,0.00
2012-4-22,69.1,63.5,53.4,67.1,55.7,41.3,98,76,59,29.74,29.32,13,4,13,0.00
2012-4-23,59.9,52.6,42.1,44.1,34.2,25.9,78,52,35,29.71,29.44,16,6,16,0.00
2012-4-24,67.6,55.3,42.3,37.5,30.4,23.3,61,39,33,29.80,29.68,17,4,17,0.00
2012-4-25,69.1,57.8,48.7,46.2,34.2,25.4,72,42,33,29.97,29.80,11,3,11,0.00
2012-4-26,75.6,68.8,55.0,57.0,51.1,46.2,80,55,37,29.94,29.77,15,4,15,0.00
2012-4-27,83.5,69.2,61.5,57.3,48.7,44.6,70,49,31,30.09,29.85,15,4,15,0.00
2012-4-28,71.6,63.9,55.4,62.8,51.5,7.5,98,66,44,30.15,30.06,11,4,11,0.00
2012-4-29,71.4,62.2,55.0,53.4,49.0,45.1,86,64,42,30.21,30.06,10,3,10,0.35
2012-4-30,75.7,65.4,53.1,62.8,51.1,44.7,89,62,36,30.24,30.15,14,3,14,0.00
2012-5-1,80.6,73.1,68.5,63.9,58.3,52.9,82,62,41,30.21,30.09,14,4,15,0.00
2012-5-2,81.1,73.4,66.6,67.4,58.9,51.1,92,64,37,30.15,30.09,11,2,13,0.00
2012-5-3,86.4,74.6,67.3,64.4,57.3,50.5,79,58,31,30.15,30.03,11,3,13,0.00
2012-5-4,86.7,74.3,65.7,67.5,59.0,50.5,92,63,31,30.06,29.94,10,2,10,0.00
2012-5-5,89.6,75.9,68.0,67.4,60.0,50.7,96,62,29,29.94,29.80,12,3,12,0.04
2012-5-6,76.8,70.5,64.9,67.8,57.5,48.9,98,67,40,30.03,29.80,19,5,19,0.00
2012-5-7,77.4,69.0,60.8,55.8,48.1,42.0,81,50,31,30.06,29.97,15,5,15,0.00
2012-5-8,79.5,71.5,57.9,52.5,44.9,40.6,68,39,31,30.03,29.91,11,4,11,0.00
2012-5-9,82.9,72.2,61.5,68.2,56.0,49.8,91,60,33,29.94,29.65,15,3,15,0.00
2012-5-10,78.3,67.0,53.1,61.4,45.6,34.1,88,50,31,29.94,29.68,13,4,13,0.00
2012-5-11,77.2,62.3,47.7,49.7,41.3,35.9,83,49,31,30.24,29.94,14,3,14,0.00
2012-5-12,77.7,64.9,48.0,60.3,44.0,40.2,92,52,31,30.33,30.21,11,2,11,0.00
2012-5-13,79.3,71.3,57.6,50.9,44.1,41.0,65,38,31,30.27,30.18,14,5,14,0.00
2012-5-14,80.8,73.0,69.4,63.5,51.4,43.8,77,48,33,30.18,30.00,15,6,15,0.00
2012-5-15,84.4,75.2,69.4,70.3,61.0,53.1,90,64,36,30.03,29.94,13,4,13,0.00
2012-5-16,82.6,73.5,68.9,67.6,62.2,50.0,86,70,33,30.00,29.91,11,2,11,0.00
2012-5-17,76.1,69.7,65.8,70.1,62.6,48.4,98,80,44,29.97,29.88,13,2,13,0.00
2012-5-18,69.6,65.3,60.8,62.5,50.8,36.7,90,62,38,30.00,29.94,17,6,17,0.51
2012-5-19,76.8,65.1,54.3,50.9,42.7,31.2,76,46,33,30.09,29.97,16,5,16,0.00
2012-5-20,73.9,64.7,53.4,57.4,45.9,32.3,80,52,38,30.06,29.97,11,2,11,0.00
2012-5-21,80.4,69.5,59.9,66.7,57.7,52.2,98,69,41,30.03,29.88,13,2,13,0.00
2012-5-22,82.9,70.7,61.0,70.8,59.7,52.7,98,72,36,29.91,29.85,13,1,13,0.00
2012-5-23,82.4,75.0,68.0,69.9,59.6,48.4,93,63,32,30.00,29.83,14,3,14,0.00
2012-5-24,84.7,76.6,66.7,71.5,59.6,52.8,92,58,36,30.06,29.97,15,4,231,0.00
2012-5-25,81.7,75.2,69.4,71.9,59.4,51.1,96,61,35,30.09,30.03,13,4,13,0.00
2012-5-26,81.3,75.6,71.4,66.7,58.0,50.1,84,56,35,30.09,30.00,17,6,17,0.00
2012-5-27,84.0,76.7,71.4,72.0,63.4,55.2,96,67,39,30.12,30.03,12,5,12,0.04
2012-5-28,86.9,78.8,73.4,72.7,62.9,54.7,87,61,35,30.12,30.06,12,4,12,0.00
2012-5-29,85.8,78.4,73.6,73.0,63.9,55.2,90,64,37,30.06,29.91,14,4,14,0.00
2012-5-30,76.6,72.9,65.8,75.3,64.8,52.0,98,77,46,29.91,29.53,20,5,20,0.00
2012-5-31,90.7,76.5,64.9,72.8,59.0,50.7,96,61,28,29.94,29.80,10,2,10,0.00
2012-6-1,87.1,78.1,72.9,73.9,64.9,56.2,90,66,38,29.94,29.80,17,4,17,0.00
2012-6-2,83.1,74.1,63.3,64.3,50.1,42.1,74,44,30,29.88,29.77,13,3,13,0.00
2012-6-3,83.3,71.5,52.9,58.2,45.1,40.1,87,42,29,29.94,29.85,13,3,13,0.00
2012-6-4,84.2,74.4,66.6,57.2,49.9,45.2,63,43,30,29.85,29.68,13,3,13,0.00
2012-6-5,72.0,65.6,57.6,59.7,49.9,41.7,82,58,35,29.94,29.71,10,2,10,0.00
2012-6-6,74.7,63.7,53.2,57.5,46.2,40.8,92,57,32,30.03,29.91,14,3,14,0.00
2012-6-7,79.7,66.1,52.0,58.7,45.4,40.0,92,51,30,30.09,30.00,13,3,13,0.00
2012-6-8,84.2,72.5,54.1,65.5,49.4,46.0,93,48,29,30.09,30.00,13,2,13,0.00
2012-6-9,88.7,76.3,61.2,58.4,51.1,47.5,76,44,28,30.15,30.06,12,2,12,0.00
2012-6-10,84.9,75.7,65.1,68.4,54.5,47.5,89,51,30,30.24,30.15,13,2,13,0.00
2012-6-11,80.4,76.0,70.7,61.7,53.9,46.0,65,47,32,30.24,30.18,13,4,13,0.00
2012-6-12,83.8,76.1,73.8,68.4,60.5,52.4,81,60,37,30.18,29.97,17,4,17,0.00
2012-6-13,85.3,78.5,71.8,76.5,62.1,52.0,98,62,33,30.03,29.88,11,3,11,0.00
2012-6-14,79.0,71.4,62.4,64.9,50.7,46.0,81,49,36,30.18,30.03,15,5,15,0.00
2012-6-15,78.8,69.6,60.4,59.1,49.5,44.4,86,52,32,30.24,30.12,18,6,18,0.04
2012-6-16,78.8,68.8,58.5,60.0,46.4,38.3,89,48,31,30.24,30.18,13,4,13,0.00
2012-6-17,79.5,69.8,58.1,63.9,48.9,42.4,97,51,31,30.21,30.09,10,3,10,0.00
2012-6-18,81.9,68.7,56.3,65.0,50.5,46.0,94,57,32,30.21,30.09,9,2,9,0.00
2012-6-19,86.4,74.1,60.4,65.8,53.3,47.9,88,52,30,30.27,30.18,11,2,11,0.00
2012-6-20,87.8,79.0,69.6,69.5,57.8,48.9,86,51,31,30.27,30.15,10,2,10,0.00
2012-6-21,88.9,78.8,69.6,66.5,59.1,52.3,81,53,30,30.18,30.00,10,2,10,0.00
2012-6-22,88.2,78.9,72.1,58.7,54.2,49.6,54,43,33,30.03,29.91,13,3,13,0.00
2012-6-23,88.5,78.0,68.5,68.2,59.2,50.2,93,56,31,30.12,29.94,17,2,17,0.00
2012-6-24,87.3,77.6,66.9,77.7,66.2,58.5,98,71,39,30.09,30.00,11,2,11,0.00
2012-6-25,86.9,79.2,73.2,75.8,64.0,56.4,93,62,36,30.00,29.80,15,3,15,0.00
2012-6-26,77.5,70.6,60.4,65.5,49.1,41.5,93,50,31,29.97,29.80,14,3,14,0.00
2012-6-27,85.3,71.9,55.2,60.5,47.9,43.5,87,46,29,30.06,29.91,14,3,14,0.00
2012-6-28,91.2,77.2,59.5,67.3,53.2,46.3,93,49,28,30.09,30.03,11,3,11,0.00
2012-6-29,90.1,82.1,75.9,72.0,61.6,54.4,81,51,35,30.03,29.88,11,3,11,0.00
2012-6-30,96.8,84.5,73.9,78.4,65.9,57.2,96,58,29,30.00,29.88,13,3,13,0.00
2012-7-1,90.0,79.4,67.5,80.1,68.0,52.3,95,71,41,30.21,30.00,28,3,28,0.00
2012-7-2,91.6,81.4,72.5,67.0,56.1,50.6,78,44,28,30.09,30.06,13,3,13,0.00
2012-7-3,92.3,81.4,69.6,79.4,64.4,56.4,98,61,31,30.12,30.06,11,2,11,0.00
2012-7-4,92.3,84.4,79.2,73.7,65.0,58.3,80,54,33,30.09,29.91,13,3,13,0.20
2012-7-5,92.5,83.9,77.7,72.7,66.0,56.3,77,57,32,29.94,29.85,11,2,11,0.20
2012-7-6,90.7,83.6,76.5,77.4,67.9,60.9,92,62,39,29.97,29.88,11,2,11,0.20
2012-7-7,93.6,84.7,78.6,76.2,65.9,58.4,88,56,31,30.00,29.94,10,2,10,0.20
2012-7-8,95.4,84.7,79.5,69.9,64.4,57.3,72,52,30,30.00,29.88,11,3,11,0.20
2012-7-9,94.3,85.3,80.4,72.9,66.2,59.5,76,55,32,29.94,29.85,12,4,13,0.00
2012-7-10,92.1,79.1,70.9,73.9,66.1,56.5,94,68,31,30.03,29.91,15,2,15,0.04
2012-7-11,88.7,76.5,70.7,78.7,68.1,55.5,98,80,34,30.09,29.97,8,1,8,0.00
2012-7-12,88.2,77.2,71.4,76.6,67.1,57.4,98,75,37,30.15,30.06,10,2,10,0.00
2012-7-13,88.5,79.5,71.1,78.2,65.2,58.3,98,66,38,30.21,30.12,9,2,9,0.04
2012-7-14,90.5,81.4,70.9,78.5,63.2,55.9,97,58,32,30.24,30.15,12,3,12,0.08
2012-7-15,90.1,81.2,70.5,77.4,61.9,56.3,95,56,33,30.21,30.09,11,2,11,0.00
2012-7-16,90.7,82.0,75.2,69.8,59.8,54.5,78,49,33,30.12,29.91,13,2,13,0.00
2012-7-17,91.9,84.3,75.7,70.7,61.4,54.7,80,48,32,30.00,29.91,13,3,232,0.00
2012-7-18,89.6,83.1,77.2,69.5,63.5,56.6,73,53,34,30.03,29.94,13,3,13,0.00
2012-7-19,91.0,82.8,78.3,70.6,65.4,60.1,76,57,37,30.06,29.97,15,3,15,0.00
2012-7-20,89.4,82.9,74.3,71.7,64.6,60.0,77,55,39,30.03,29.94,15,4,15,0.39
2012-7-21,89.4,78.5,73.0,75.4,68.2,57.6,94,73,35,30.12,29.97,12,1,12,0.16
2012-7-22,91.4,81.5,74.5,75.4,67.8,58.5,90,66,34,30.18,30.09,9,1,9,0.04
2012-7-23,96.1,82.3,72.0,75.6,66.4,54.7,91,62,29,30.18,30.03,14,2,230,0.24
2012-7-24,92.5,80.7,71.8,76.4,66.7,55.1,97,68,33,30.06,29.77,27,2,27,0.35
2012-7-25,89.2,79.8,72.3,73.1,58.8,52.7,91,51,31,29.97,29.83,12,4,12,0.00
2012-7-26,90.5,82.3,76.6,75.7,69.2,60.3,86,66,43,29.94,29.83,11,3,11,0.08
2012-7-27,93.2,85.5,80.6,77.6,68.9,60.3,87,60,37,29.94,29.85,13,3,13,0.00
2012-7-28,91.2,80.6,70.2,76.4,65.6,51.0,94,64,36,30.06,29.91,69,2,69,0.47
2012-7-29,90.7,80.5,69.8,75.7,64.6,57.6,96,62,34,30.00,29.91,12,2,12,0.12
2012-7-30,84.2,76.0,71.6,74.4,67.4,56.3,95,76,40,30.03,29.94,9,1,9,1.46
2012-7-31,87.1,77.2,69.6,76.0,68.2,59.3,98,77,43,30.00,29.91,11,2,11,0.00
2012-8-1,83.5,75.7,70.9,75.6,66.9,53.5,97,77,37,29.94,29.85,10,1,10,0.51
2012-8-2,89.2,79.4,68.4,79.8,64.4,53.7,98,65,31,30.00,29.88,9,2,9,0.00
2012-8-3,90.1,80.0,70.2,80.8,63.9,52.8,98,62,30,30.12,29.97,13,2,13,0.00
2012-8-4,90.1,82.8,76.6,71.4,63.5,56.3,79,54,32,30.24,30.06,10,3,10,0.04
2012-8-5,91.0,84.1,79.3,68.9,62.7,56.5,69,50,32,30.24,30.15,11,4,11,0.00
2012-8-6,88.9,82.0,74.3,79.5,65.2,56.9,94,59,35,30.15,30.03,11,2,11,0.47
2012-8-7,85.8,78.7,74.3,73.5,67.4,59.1,88,69,41,30.06,29.97,8,1,8,0.24
2012-8-8,81.9,76.9,73.6,79.5,69.2,60.1,98,79,50,30.03,29.94,6,0,6,0.20
2012-8-9,88.5,79.5,69.8,78.9,65.2,56.4,98,66,35,30.00,29.91,10,2,10,0.00
2012-8-10,87.1,80.8,74.7,75.6,66.2,57.6,94,63,38,29.94,29.85,14,4,14,0.43
2012-8-11,84.7,79.2,71.8,77.4,67.1,58.8,96,68,42,30.00,29.91,22,4,22,1.02
2012-8-12,84.0,76.6,71.6,75.6,65.5,56.2,95,71,40,30.03,29.94,9,1,9,0.24
2012-8-13,89.4,80.0,70.3,78.5,66.7,58.5,98,68,36,30.03,29.94,12,2,12,0.00
2012-8-14,91.6,82.6,73.6,76.1,63.1,52.4,94,57,28,30.00,29.88,13,2,13,0.00
2012-8-15,89.8,80.2,71.6,74.1,66.3,54.3,94,66,37,29.94,29.88,14,2,14,0.75
2012-8-16,87.1,78.2,71.2,75.9,66.1,56.9,98,70,37,30.00,29.91,10,2,10,0.28
2012-8-17,89.6,78.5,70.0,80.6,67.4,55.8,98,73,34,30.00,29.85,13,1,13,0.00
2012-8-18,89.1,79.5,72.9,74.3,63.9,53.1,93,62,33,29.91,29.83,10,1,10,0.00
2012-8-19,88.5,76.4,69.6,76.2,66.7,55.2,97,75,38,29.91,29.80,10,2,10,0.39
2012-8-20,84.7,77.3,71.6,73.8,62.9,51.8,98,66,33,29.97,29.83,11,2,11,0.43
2012-8-21,79.0,73.9,71.1,72.9,65.6,55.1,96,77,44,30.09,29.94,9,1,9,0.20
2012-8-22,82.6,75.1,70.7,73.2,64.4,53.8,95,73,38,30.09,30.00,10,2,10,0.39
2012-8-23,81.9,73.6,69.8,73.5,68.4,55.4,98,86,43,30.09,30.03,9,3,9,1.02
2012-8-24,78.4,73.1,69.6,73.0,66.5,53.1,98,82,43,30.09,30.00,11,3,11,0.91
2012-8-25,79.2,72.5,66.4,73.9,63.2,53.1,98,76,41,30.12,29.97,9,1,9,1.61
2012-8-26,88.3,76.9,66.4,71.0,61.4,52.5,98,64,32,30.15,30.09,12,2,12,0.00
2012-8-27,89.1,79.5,73.0,77.5,68.5,59.7,98,72,38,30.12,30.03,11,2,11,0.67
2012-8-28,82.4,76.5,74.5,79.5,72.9,62.2,98,89,57,30.03,29.94,10,1,10,0.43
2012-8-29,86.9,76.9,73.4,78.0,68.6,55.3,98,79,36,30.03,29.88,9,2,230,0.08
2012-8-30,85.8,77.3,68.7,72.9,62.8,53.4,97,65,35,30.18,29.97,12,2,12,0.00
2012-8-31,88.7,78.1,64.2,78.5,62.1,55.5,98,62,34,30.24,30.09,11,2,11,0.00
2012-9-1,92.8,82.9,75.2,73.2,65.7,58.2,87,59,32,30.15,30.00,8,2,8,0.00
2012-9-2,93.2,80.4,73.9,75.3,63.4,55.7,89,59,31,30.06,29.97,10,1,10,0.00
2012-9-3,85.8,79.0,74.1,79.7,69.4,58.8,98,74,41,30.09,29.97,13,2,13,0.00
2012-9-4,87.3,78.9,71.6,77.3,63.8,55.4,94,62,35,30.06,29.97,11,2,11,0.00
2012-9-5,88.5,81.5,75.7,67.0,60.0,56.7,68,49,36,30.00,29.91,17,3,17,0.00
2012-9-6,90.1,82.1,72.1,71.0,62.2,56.3,94,53,34,29.97,29.88,14,3,14,1.18
2012-9-7,86.9,77.4,70.9,74.1,66.3,57.9,98,72,39,29.97,29.88,9,2,9,0.55
2012-9-8,88.5,79.7,71.8,80.6,67.1,55.2,98,69,39,29.88,29.77,15,3,15,1.10
2012-9-9,77.7,72.1,62.8,68.1,57.6,48.9,91,62,40,29.94,29.77,14,3,14,0.00
2012-9-10,80.1,67.7,57.9,56.5,46.3,40.0,88,50,30,30.18,29.91,14,2,14,0.00
2012-9-11,79.2,68.2,54.5,61.6,46.2,40.2,93,50,30,30.30,30.15,14,2,14,0.00
2012-9-12,79.5,67.9,53.4,61.3,47.4,44.7,93,52,31,30.30,30.27,10,2,232,0.00
2012-9-13,83.3,70.3,60.3,64.3,53.1,47.9,93,59,31,30.30,30.21,11,3,11,0.00
2012-9-14,83.3,73.3,67.1,70.0,61.3,50.8,98,70,34,30.21,30.12,10,2,10,0.63
2012-9-15,84.6,72.6,65.3,73.9,59.7,47.1,98,69,30,30.15,30.09,13,1,13,0.00
2012-9-16,80.6,72.1,64.4,54.8,48.6,43.8,66,45,31,30.15,30.09,9,2,9,0.00
2012-9-17,83.8,74.7,67.8,64.4,58.0,51.1,76,58,35,30.12,30.03,14,3,14,0.00
2012-9-18,87.1,77.5,71.8,74.5,65.5,56.0,93,68,35,30.03,29.83,16,5,16,0.63
2012-9-19,76.3,71.0,64.0,73.3,56.6,44.2,91,62,40,30.09,29.85,13,3,17,0.00
2012-9-20,78.1,68.9,62.6,54.7,49.3,44.9,73,52,33,30.12,30.03,13,3,13,0.00
2012-9-21,80.1,68.4,57.9,64.3,51.0,43.3,94,58,31,30.09,30.00,9,2,9,0.00
2012-9-22,82.8,71.2,59.2,70.5,54.9,48.6,97,61,31,30.03,29.97,12,2,13,0.00
2012-9-23,79.0,71.9,62.8,62.8,51.5,46.0,85,51,33,30.12,29.97,11,3,11,0.00
2012-9-24,73.9,64.0,53.6,53.5,41.8,35.6,83,47,32,30.21,30.09,15,2,15,0.00
2012-9-25,79.0,65.4,52.3,54.8,43.1,35.9,81,47,31,30.24,30.15,11,2,11,0.00
2012-9-26,81.7,67.0,54.7,64.7,50.5,0.0,97,61,30,30.24,30.18,8,1,8,0.00
2012-9-27,84.7,70.0,57.7,70.1,53.2,47.2,97,61,30,30.21,30.09,9,1,9,0.00
2012-9-28,85.1,71.5,58.6,72.2,55.3,48.0,98,62,30,30.12,30.00,9,1,9,0.00
2012-9-29,79.0,69.8,66.2,67.9,61.6,51.7,94,77,39,30.00,29.88,9,1,9,0.28
2012-9-30,75.0,67.7,63.0,66.2,57.7,48.1,98,74,39,29.91,29.85,10,2,10,0.04
2012-10-1,80.6,71.3,65.1,75.1,63.8,55.5,98,80,45,29.91,29.85,12,2,12,0.12
2012-10-2,78.3,76.3,73.6,77.3,73.8,67.6,98,92,76,30.03,29.85,14,3,14,0.43
2012-10-3,84.7,78.8,76.1,74.2,68.1,58.8,92,72,42,30.18,30.03,11,2,11,0.00
2012-10-4,84.0,77.2,70.2,75.9,62.0,52.0,98,64,34,30.21,30.12,9,1,10,0.00
2012-10-5,84.2,71.1,64.0,68.2,55.7,45.6,98,64,30,30.18,30.03,9,1,9,0.00
2012-10-6,83.8,71.8,58.8,72.1,54.0,46.3,98,59,30,30.03,29.88,13,1,13,0.00
2012-10-7,83.1,71.0,58.1,69.3,58.5,52.1,95,68,37,30.09,29.91,11,2,11,0.08
2012-10-8,69.6,62.0,56.3,60.9,53.2,47.0,98,74,52,30.15,30.00,14,5,14,0.20
2012-10-9,64.4,58.4,54.5,60.1,52.3,45.4,98,82,50,30.06,30.00,13,4,13,0.00
2012-10-10,71.8,60.9,54.5,55.2,46.2,38.6,94,63,33,30.09,29.94,8,2,8,0.00
2012-10-11,69.3,58.7,50.2,50.7,41.8,36.6,87,57,33,30.24,30.06,13,2,13,0.00
2012-10-12,72.5,59.3,43.5,60.0,41.5,37.2,97,57,32,30.27,30.12,9,1,9,0.00
2012-10-13,70.3,59.1,49.3,40.9,37.4,0.0,66,46,32,30.39,30.27,11,3,11,0.00
2012-10-14,80.8,67.3,51.8,66.4,49.2,38.8,98,58,31,30.30,30.09,9,2,9,0.00
2012-10-15,79.5,67.5,57.0,70.8,56.3,47.9,97,71,34,30.09,29.74,9,2,9,0.00
2012-10-16,69.3,59.4,47.3,55.2,38.2,33.7,75,47,33,29.94,29.77,15,3,15,0.00
2012-10-17,67.8,56.9,45.9,53.6,42.4,37.0,94,63,34,30.00,29.91,8,1,8,0.00
2012-10-18,78.4,65.8,52.5,65.5,53.0,44.9,93,66,32,29.94,29.83,10,2,10,0.00
2012-10-19,80.4,71.7,62.8,70.3,60.7,45.4,96,71,38,29.83,29.74,8,1,8,0.00
2012-10-20,76.1,62.6,50.5,51.4,40.3,35.4,76,46,31,29.91,29.77,11,1,11,0.00
2012-10-21,70.7,57.5,47.3,42.1,36.8,31.1,72,48,32,30.12,29.91,9,2,9,0.00
2012-10-22,72.1,55.7,41.5,56.6,39.6,36.0,94,59,32,30.18,30.09,8,1,8,0.00
2012-10-23,76.8,57.5,43.5,60.4,42.5,38.6,97,63,31,30.18,30.09,8,1,8,0.00
2012-10-24,81.5,65.0,51.1,64.4,50.9,44.0,97,66,31,30.18,30.09,8,2,8,0.00
2012-10-25,81.5,68.7,55.9,68.3,53.4,47.5,98,63,31,30.15,30.09,10,2,10,0.00
2012-10-26,76.3,67.6,59.5,67.1,59.1,48.8,98,77,40,30.09,29.80,17,6,232,0.04
2012-10-27,70.2,66.7,62.8,63.2,58.0,49.0,92,75,47,29.80,29.47,27,9,28,1.34
2012-10-28,63.0,59.0,55.8,59.9,50.5,37.2,93,75,47,29.47,29.32,29,10,29,1.14
2012-10-29,57.2,51.8,47.8,47.9,35.2,25.0,82,54,40,29.41,29.32,22,8,22,1.14
2012-10-30,58.1,51.2,47.3,30.6,26.5,23.6,42,38,35,29.62,29.35,19,2,19,1.14
2012-10-31,61.0,51.5,42.6,33.2,28.5,23.1,55,41,34,29.74,29.62,13,2,13,1.14
2012-11-1,62.6,50.7,36.5,42.9,30.6,25.3,83,49,34,29.83,29.71,12,2,12,1.14
2012-11-2,65.1,49.1,37.2,36.1,30.8,25.9,78,52,34,29.94,29.77,10,2,10,1.14
2012-11-3,59.5,46.2,34.5,38.7,29.7,24.6,85,56,35,30.06,29.91,12,2,12,1.14
2012-11-4,72.9,49.7,36.3,48.9,34.9,26.0,92,60,34,30.06,29.88,13,3,13,1.14
2012-11-5,56.3,47.2,37.9,43.7,31.5,23.8,92,58,36,30.09,29.91,15,3,15,1.14
2012-11-6,47.7,44.1,39.2,46.0,37.0,27.5,97,78,50,30.06,29.80,13,5,13,1.14
2012-11-7,51.8,44.2,37.6,44.9,35.5,29.8,98,74,44,29.88,29.77,13,4,13,1.14
2012-11-8,59.5,44.1,33.3,37.8,27.4,18.5,92,56,35,30.03,29.85,11,3,11,1.14
2012-11-9,61.2,46.0,32.2,32.8,25.3,15.2,75,46,34,30.21,30.03,9,2,9,1.14
2012-11-10,66.2,50.9,35.8,52.1,35.0,29.9,93,59,33,30.36,30.21,8,1,8,1.14
2012-11-11,72.0,56.3,41.5,58.5,43.1,37.2,98,66,33,30.45,30.36,8,1,8,1.14
2012-11-12,73.0,64.4,52.9,63.3,54.0,46.2,98,72,40,30.39,30.21,13,3,13,1.14
2012-11-13,70.5,58.1,46.0,68.4,52.4,37.9,98,82,58,30.30,30.15,17,4,17,1.14
2012-11-14,54.3,48.6,44.8,38.4,31.5,28.0,75,52,41,30.36,30.27,17,7,17,1.14
2012-11-15,56.3,49.5,43.3,48.6,38.4,28.9,93,67,48,30.27,30.12,17,5,17,1.14
2012-11-16,58.8,50.9,42.6,47.5,34.6,23.5,94,57,37,30.30,30.12,17,5,17,0.00
2012-11-17,58.3,50.4,39.2,38.5,34.1,23.1,75,54,41,30.33,30.27,19,7,19,0.00
2012-11-18,59.5,56.1,53.4,54.5,48.2,38.4,93,76,48,30.30,30.15,21,9,21,0.51
2012-11-19,58.3,55.3,51.8,53.9,45.9,42.3,94,71,56,30.15,30.03,21,9,21,0.04
2012-11-20,58.6,52.9,50.7,50.3,43.8,32.6,94,73,48,30.06,30.00,15,5,15,0.00
2012-11-21,59.9,51.8,45.3,42.2,34.4,30.8,85,53,37,30.09,30.00,15,6,15,0.00
2012-11-22,61.5,51.5,40.6,38.5,34.1,30.7,82,53,37,30.12,30.03,19,5,19,0.00
2012-11-23,65.5,50.9,38.1,47.3,35.7,30.5,94,60,33,30.09,29.88,10,2,10,0.00
2012-11-24,54.3,45.2,33.8,28.0,21.3,13.1,43,38,36,30.06,29.91,14,3,14,0.00
2012-11-25,50.5,37.6,26.1,25.2,17.9,8.6,68,45,37,30.15,30.03,10,2,10,0.00
2012-11-26,63.3,46.9,34.5,44.3,31.0,24.7,82,56,34,30.18,30.06,145,1,145,0.00
2012-11-27,61.5,50.6,36.9,54.5,38.7,31.8,94,68,35,30.18,30.06,6,1,6,0.04
2012-11-28,52.0,41.8,28.9,45.5,28.1,19.1,95,61,36,30.36,30.12,15,3,15,0.00
2012-11-29,56.7,39.9,25.7,37.0,24.4,19.0,90,57,35,30.45,30.36,9,1,9,0.00
2012-11-30,60.1,42.0,27.9,44.0,28.2,23.2,97,62,35,30.39,30.27,8,1,8,0.00
2012-12-1,62.6,45.9,33.1,49.4,32.5,28.5,98,64,34,30.36,30.27,9,1,9,0.00
2012-12-2,64.4,48.8,35.8,50.5,37.5,31.8,98,68,35,30.39,30.27,8,1,8,0.00
2012-12-3,73.6,61.2,50.5,61.9,50.0,42.2,96,70,33,30.30,30.21,10,1,10,0.00
2012-12-4,70.3,59.1,47.7,64.1,49.5,44.6,98,73,40,30.30,30.21,9,1,9,0.00
2012-12-5,74.7,61.8,53.2,62.3,47.1,30.8,97,64,32,30.21,30.06,11,2,11,0.00
2012-12-6,53.8,50.0,45.7,33.4,29.0,25.1,58,44,38,30.24,30.15,13,4,14,0.00
2012-12-7,64.4,57.4,44.8,62.8,50.1,31.8,98,78,48,30.15,29.97,9,3,9,0.83
2012-12-8,66.9,60.8,56.1,62.6,55.6,44.0,98,85,44,30.06,29.91,9,1,9,0.00
2012-12-9,68.0,60.5,51.1,63.0,50.9,40.2,98,74,38,30.15,30.00,8,2,8,0.00
2012-12-10,67.6,64.2,61.0,66.9,61.4,53.1,98,91,65,30.00,29.80,13,3,13,0.12
2012-12-11,71.2,63.2,53.1,69.6,55.8,43.9,98,80,38,30.09,29.77,11,2,11,0.83
2012-12-12,53.2,48.8,45.1,49.9,43.8,38.2,94,83,62,30.21,30.06,19,7,19,0.39
2012-12-13,51.3,47.0,42.4,45.5,38.0,31.4,98,72,51,30.27,30.06,22,5,22,0.31
2012-12-14,58.8,44.7,35.8,43.1,33.2,29.2,94,67,36,30.33,30.18,13,2,13,0.00
2012-12-15,61.0,50.1,37.2,48.0,38.3,31.6,98,67,39,30.24,30.06,8,1,8,0.00
2012-12-16,62.1,58.7,54.0,60.9,56.8,42.9,98,94,66,30.06,29.88,8,1,8,0.08
2012-12-17,63.5,60.6,57.9,62.9,60.0,57.4,98,98,98,29.88,29.65,13,2,13,0.55
2012-12-18,66.0,57.3,44.1,59.7,40.8,24.0,98,57,34,29.88,29.65,14,4,14,0.00
2012-12-19,64.9,47.1,35.4,38.0,30.0,23.6,77,53,33,30.09,29.88,10,1,10,0.00
2012-12-20,66.2,57.0,39.2,55.8,41.4,33.2,92,58,41,30.15,29.59,18,5,18,0.04
2012-12-21,65.5,47.7,40.1,64.6,25.5,17.1,97,43,37,29.80,29.47,24,8,24,0.28
2012-12-22,49.1,40.3,34.9,24.0,17.6,13.7,42,39,37,30.06,29.77,18,5,18,0.00
2012-12-23,53.2,43.4,26.4,31.0,21.5,7.8,58,42,36,30.15,30.03,8,2,9,0.00
2012-12-24,61.2,52.2,42.3,42.6,29.7,20.8,75,43,34,30.06,29.91,10,1,10,0.00
2012-12-25,58.1,50.5,43.3,44.5,38.1,33.6,85,64,41,30.09,29.91,10,3,10,0.00
2012-12-26,64.8,56.9,47.7,63.7,48.2,26.3,98,75,38,30.03,29.44,17,6,18,0.94
2012-12-27,51.6,44.3,36.9,26.2,22.7,18.3,53,42,37,30.00,29.59,20,5,20,0.00
2012-12-28,47.1,38.6,28.0,26.8,21.1,15.1,74,50,39,30.15,29.97,9,1,9,0.00
2012-12-29,53.2,47.4,42.6,52.7,35.9,21.3,98,67,42,30.00,29.59,16,4,17,1.02
2012-12-30,47.8,38.7,28.8,23.6,17.5,11.1,53,42,37,30.36,29.85,17,4,17,0.00
2012-12-31,52.2,41.2,25.7,33.9,22.3,11.2,66,48,36,30.36,30.12,8,1,8,0.00
2013-1-1,59.2,54.3,48.6,48.2,38.2,29.9,77,55,36,30.12,29.91,11,2,11,0.00